sensor_id;sensor_type;location;lat;lon;timestamp;temperature;humidity
6758;DHT22;3416;53.074;8.822;2023-05-23T00:00:09;16.10;99.90
6758;DHT22;3416;53.074;8.822;2023-05-23T00:02:38;16.10;99.90
6758;DHT22;3416;53.074;8.822;2023-05-23T00:05:06;16.10;99.90
6758;DHT22;3416;53.074;8.822;2023-05-23T00:07:33;16.10;99.90
6758;DHT22;3416;53.074;8.822;2023-05-23T00:10:00;16.10;99.90
6758;DHT22;3416;53.074;8.822;2023-05-23T00:12:28;16.10;99.90
6758;DHT22;3416;53.074;8.822;2023-05-23T00:14:58;16.00;99.90
6758;DHT22;3416;53.074;8.822;2023-05-23T00:17:25;15.90;99.90
6758;DHT22;3416;53.074;8.822;2023-05-23T00:19:52;15.90;99.90
6758;DHT22;3416;53.074;8.822;2023-05-23T00:22:20;15.80;99.90
6758;DHT22;3416;53.074;8.822;2023-05-23T00:24:47;15.80;99.90
6758;DHT22;3416;53.074;8.822;2023-05-23T00:27:14;15.90;99.90
6758;DHT22;3416;53.074;8.822;2023-05-23T00:29:41;15.90;99.90
6758;DHT22;3416;53.074;8.822;2023-05-23T00:32:09;15.90;99.90
6758;DHT22;3416;53.074;8.822;2023-05-23T00:34:36;15.90;99.90
6758;DHT22;3416;53.074;8.822;2023-05-23T00:37:04;15.80;99.90
6758;DHT22;3416;53.074;8.822;2023-05-23T00:39:30;15.80;99.90
6758;DHT22;3416;53.074;8.822;2023-05-23T00:41:58;15.80;99.90
6758;DHT22;3416;53.074;8.822;2023-05-23T00:44:30;15.80;99.90
6758;DHT22;3416;53.074;8.822;2023-05-23T00:46:57;15.80;99.90
6758;DHT22;3416;53.074;8.822;2023-05-23T00:49:26;15.80;99.90
6758;DHT22;3416;53.074;8.822;2023-05-23T00:51:53;15.80;99.90
6758;DHT22;3416;53.074;8.822;2023-05-23T00:54:24;16.00;99.90
6758;DHT22;3416;53.074;8.822;2023-05-23T00:56:53;15.90;99.90
6758;DHT22;3416;53.074;8.822;2023-05-23T00:59:21;15.90;99.90
6758;DHT22;3416;53.074;8.822;2023-05-23T01:01:50;15.90;99.90
6758;DHT22;3416;53.074;8.822;2023-05-23T01:04:17;15.80;99.90
6758;DHT22;3416;53.074;8.822;2023-05-23T01:06:46;15.80;99.90
6758;DHT22;3416;53.074;8.822;2023-05-23T01:09:14;15.80;99.90
6758;DHT22;3416;53.074;8.822;2023-05-23T01:11:47;15.90;99.90
6758;DHT22;3416;53.074;8.822;2023-05-23T01:14:19;15.90;99.90
6758;DHT22;3416;53.074;8.822;2023-05-23T01:16:54;15.90;99.90
6758;DHT22;3416;53.074;8.822;2023-05-23T01:19:48;15.90;99.90
6758;DHT22;3416;53.074;8.822;2023-05-23T01:22:22;15.90;99.90
6758;DHT22;3416;53.074;8.822;2023-05-23T01:24:54;15.90;99.90
6758;DHT22;3416;53.074;8.822;2023-05-23T01:27:38;15.90;99.90
6758;DHT22;3416;53.074;8.822;2023-05-23T01:30:09;15.90;99.90
6758;DHT22;3416;53.074;8.822;2023-05-23T01:32:38;15.90;99.90
6758;DHT22;3416;53.074;8.822;2023-05-23T01:35:06;15.90;99.90
6758;DHT22;3416;53.074;8.822;2023-05-23T01:37:33;15.80;99.90
6758;DHT22;3416;53.074;8.822;2023-05-23T01:40:00;16.00;99.90
6758;DHT22;3416;53.074;8.822;2023-05-23T01:42:27;15.70;99.90
6758;DHT22;3416;53.074;8.822;2023-05-23T01:44:56;15.70;99.90
6758;DHT22;3416;53.074;8.822;2023-05-23T01:47:24;15.80;99.90
6758;DHT22;3416;53.074;8.822;2023-05-23T01:49:52;15.70;99.90
6758;DHT22;3416;53.074;8.822;2023-05-23T01:52:21;15.60;99.90
6758;DHT22;3416;53.074;8.822;2023-05-23T01:54:49;15.60;99.90
6758;DHT22;3416;53.074;8.822;2023-05-23T01:57:17;15.60;99.90
6758;DHT22;3416;53.074;8.822;2023-05-23T01:59:46;15.60;99.90
6758;DHT22;3416;53.074;8.822;2023-05-23T02:02:14;15.60;99.90
6758;DHT22;3416;53.074;8.822;2023-05-23T02:04:41;15.50;99.90
6758;DHT22;3416;53.074;8.822;2023-05-23T02:07:08;15.60;99.90
6758;DHT22;3416;53.074;8.822;2023-05-23T02:09:35;15.60;99.90
6758;DHT22;3416;53.074;8.822;2023-05-23T02:12:02;15.60;99.90
6758;DHT22;3416;53.074;8.822;2023-05-23T02:14:29;15.70;99.90
6758;DHT22;3416;53.074;8.822;2023-05-23T02:16:56;15.70;99.90
6758;DHT22;3416;53.074;8.822;2023-05-23T02:19:24;15.80;99.90
6758;DHT22;3416;53.074;8.822;2023-05-23T02:21:51;15.80;99.90
6758;DHT22;3416;53.074;8.822;2023-05-23T02:24:18;15.80;99.90
6758;DHT22;3416;53.074;8.822;2023-05-23T02:26:51;15.80;99.90
6758;DHT22;3416;53.074;8.822;2023-05-23T02:29:18;15.80;99.90
6758;DHT22;3416;53.074;8.822;2023-05-23T02:31:45;15.80;99.90
6758;DHT22;3416;53.074;8.822;2023-05-23T02:34:12;15.80;99.90
6758;DHT22;3416;53.074;8.822;2023-05-23T02:36:40;15.80;99.90
6758;DHT22;3416;53.074;8.822;2023-05-23T02:39:07;15.70;99.90
6758;DHT22;3416;53.074;8.822;2023-05-23T02:41:34;15.80;99.90
6758;DHT22;3416;53.074;8.822;2023-05-23T02:44:01;15.90;99.90
6758;DHT22;3416;53.074;8.822;2023-05-23T02:46:28;15.90;99.90
6758;DHT22;3416;53.074;8.822;2023-05-23T02:48:55;15.90;99.90
6758;DHT22;3416;53.074;8.822;2023-05-23T02:51:22;15.90;99.90
6758;DHT22;3416;53.074;8.822;2023-05-23T02:53:50;15.90;99.90
6758;DHT22;3416;53.074;8.822;2023-05-23T02:56:17;15.90;99.90
6758;DHT22;3416;53.074;8.822;2023-05-23T02:58:44;15.80;99.90
6758;DHT22;3416;53.074;8.822;2023-05-23T03:01:11;15.90;99.90
6758;DHT22;3416;53.074;8.822;2023-05-23T03:03:38;15.80;99.90
6758;DHT22;3416;53.074;8.822;2023-05-23T03:06:07;15.80;99.90
6758;DHT22;3416;53.074;8.822;2023-05-23T03:08:35;15.80;99.90
6758;DHT22;3416;53.074;8.822;2023-05-23T03:11:03;15.80;99.90
6758;DHT22;3416;53.074;8.822;2023-05-23T03:13:30;15.70;99.90
6758;DHT22;3416;53.074;8.822;2023-05-23T03:15:57;15.70;99.90
6758;DHT22;3416;53.074;8.822;2023-05-23T03:18:24;15.70;99.90
6758;DHT22;3416;53.074;8.822;2023-05-23T03:20:51;15.80;99.90
6758;DHT22;3416;53.074;8.822;2023-05-23T03:23:17;15.70;99.90
6758;DHT22;3416;53.074;8.822;2023-05-23T03:25:44;15.70;99.90
6758;DHT22;3416;53.074;8.822;2023-05-23T03:28:13;15.60;99.90
6758;DHT22;3416;53.074;8.822;2023-05-23T03:30:41;15.60;99.90
6758;DHT22;3416;53.074;8.822;2023-05-23T03:33:08;15.50;99.90
6758;DHT22;3416;53.074;8.822;2023-05-23T03:35:36;15.50;99.90
6758;DHT22;3416;53.074;8.822;2023-05-23T03:38:03;15.50;99.90
6758;DHT22;3416;53.074;8.822;2023-05-23T03:40:30;15.50;99.90
6758;DHT22;3416;53.074;8.822;2023-05-23T03:43:03;15.40;99.90
6758;DHT22;3416;53.074;8.822;2023-05-23T03:45:32;15.40;99.90
6758;DHT22;3416;53.074;8.822;2023-05-23T03:47:59;15.40;99.90
6758;DHT22;3416;53.074;8.822;2023-05-23T03:50:27;15.40;99.90
6758;DHT22;3416;53.074;8.822;2023-05-23T03:52:53;15.40;99.90
6758;DHT22;3416;53.074;8.822;2023-05-23T03:55:21;15.40;99.90
6758;DHT22;3416;53.074;8.822;2023-05-23T03:57:48;15.40;99.90
6758;DHT22;3416;53.074;8.822;2023-05-23T04:00:16;15.30;99.90
6758;DHT22;3416;53.074;8.822;2023-05-23T04:02:45;15.30;99.90
6758;DHT22;3416;53.074;8.822;2023-05-23T04:05:12;15.30;99.90
6758;DHT22;3416;53.074;8.822;2023-05-23T04:07:39;15.30;99.90
6758;DHT22;3416;53.074;8.822;2023-05-23T04:10:09;15.30;99.90
6758;DHT22;3416;53.074;8.822;2023-05-23T04:12:36;15.20;99.90
6758;DHT22;3416;53.074;8.822;2023-05-23T04:15:07;15.20;99.90
6758;DHT22;3416;53.074;8.822;2023-05-23T04:17:34;15.20;99.90
6758;DHT22;3416;53.074;8.822;2023-05-23T04:20:07;15.30;99.90
6758;DHT22;3416;53.074;8.822;2023-05-23T04:22:35;15.30;99.90
6758;DHT22;3416;53.074;8.822;2023-05-23T04:25:02;15.10;99.90
6758;DHT22;3416;53.074;8.822;2023-05-23T04:27:29;15.10;99.90
6758;DHT22;3416;53.074;8.822;2023-05-23T04:29:56;15.10;99.90
6758;DHT22;3416;53.074;8.822;2023-05-23T04:32:25;15.10;99.90
6758;DHT22;3416;53.074;8.822;2023-05-23T04:34:52;15.00;99.90
6758;DHT22;3416;53.074;8.822;2023-05-23T04:37:20;14.90;99.90
6758;DHT22;3416;53.074;8.822;2023-05-23T04:39:51;15.00;99.90
6758;DHT22;3416;53.074;8.822;2023-05-23T04:42:18;15.00;99.90
6758;DHT22;3416;53.074;8.822;2023-05-23T04:44:49;15.00;99.90
6758;DHT22;3416;53.074;8.822;2023-05-23T04:47:17;15.00;99.90
6758;DHT22;3416;53.074;8.822;2023-05-23T04:49:44;15.00;99.90
6758;DHT22;3416;53.074;8.822;2023-05-23T04:52:12;15.10;99.90
6758;DHT22;3416;53.074;8.822;2023-05-23T04:54:40;15.10;99.90
6758;DHT22;3416;53.074;8.822;2023-05-23T04:57:09;15.20;99.90
6758;DHT22;3416;53.074;8.822;2023-05-23T04:59:37;15.30;99.90
6758;DHT22;3416;53.074;8.822;2023-05-23T05:02:04;15.30;99.90
6758;DHT22;3416;53.074;8.822;2023-05-23T05:04:32;15.20;99.90
6758;DHT22;3416;53.074;8.822;2023-05-23T05:06:59;15.20;99.90
6758;DHT22;3416;53.074;8.822;2023-05-23T05:09:28;15.10;99.90
6758;DHT22;3416;53.074;8.822;2023-05-23T05:11:56;15.00;99.90
6758;DHT22;3416;53.074;8.822;2023-05-23T05:14:24;14.90;99.90
6758;DHT22;3416;53.074;8.822;2023-05-23T05:16:51;14.80;99.90
6758;DHT22;3416;53.074;8.822;2023-05-23T05:19:19;14.80;99.90
6758;DHT22;3416;53.074;8.822;2023-05-23T05:21:46;14.70;99.90
6758;DHT22;3416;53.074;8.822;2023-05-23T05:24:13;14.70;99.90
6758;DHT22;3416;53.074;8.822;2023-05-23T05:26:40;14.70;99.90
6758;DHT22;3416;53.074;8.822;2023-05-23T05:29:08;14.70;99.90
6758;DHT22;3416;53.074;8.822;2023-05-23T05:31:35;14.70;99.90
6758;DHT22;3416;53.074;8.822;2023-05-23T05:34:03;14.70;99.90
6758;DHT22;3416;53.074;8.822;2023-05-23T05:36:30;14.50;99.90
6758;DHT22;3416;53.074;8.822;2023-05-23T05:38:57;14.50;99.90
6758;DHT22;3416;53.074;8.822;2023-05-23T05:41:24;14.50;99.90
6758;DHT22;3416;53.074;8.822;2023-05-23T05:43:52;14.50;99.90
6758;DHT22;3416;53.074;8.822;2023-05-23T05:46:20;14.40;99.90
6758;DHT22;3416;53.074;8.822;2023-05-23T05:48:48;14.40;99.90
6758;DHT22;3416;53.074;8.822;2023-05-23T05:51:15;14.40;99.90
6758;DHT22;3416;53.074;8.822;2023-05-23T05:53:42;14.40;99.90
6758;DHT22;3416;53.074;8.822;2023-05-23T05:56:08;14.40;99.90
6758;DHT22;3416;53.074;8.822;2023-05-23T05:58:35;14.40;99.90
6758;DHT22;3416;53.074;8.822;2023-05-23T06:01:04;14.40;99.90
6758;DHT22;3416;53.074;8.822;2023-05-23T06:03:32;14.40;99.90
6758;DHT22;3416;53.074;8.822;2023-05-23T06:05:59;14.40;99.90
6758;DHT22;3416;53.074;8.822;2023-05-23T06:08:26;14.40;99.90
6758;DHT22;3416;53.074;8.822;2023-05-23T06:10:54;14.30;99.90
6758;DHT22;3416;53.074;8.822;2023-05-23T06:13:21;14.30;99.90
6758;DHT22;3416;53.074;8.822;2023-05-23T06:15:49;14.30;99.90
6758;DHT22;3416;53.074;8.822;2023-05-23T06:18:16;14.10;99.90
6758;DHT22;3416;53.074;8.822;2023-05-23T06:20:44;14.10;99.90
6758;DHT22;3416;53.074;8.822;2023-05-23T06:23:11;14.00;99.90
6758;DHT22;3416;53.074;8.822;2023-05-23T06:25:38;14.00;99.90
6758;DHT22;3416;53.074;8.822;2023-05-23T06:28:05;14.00;99.90
6758;DHT22;3416;53.074;8.822;2023-05-23T06:30:33;14.00;99.90
6758;DHT22;3416;53.074;8.822;2023-05-23T06:33:00;14.00;99.90
6758;DHT22;3416;53.074;8.822;2023-05-23T06:35:27;14.00;99.90
6758;DHT22;3416;53.074;8.822;2023-05-23T06:37:56;14.00;99.90
6758;DHT22;3416;53.074;8.822;2023-05-23T06:40:23;14.00;99.90
6758;DHT22;3416;53.074;8.822;2023-05-23T06:42:50;14.00;99.90
6758;DHT22;3416;53.074;8.822;2023-05-23T06:45:17;14.00;99.90
6758;DHT22;3416;53.074;8.822;2023-05-23T06:47:43;13.90;99.90
6758;DHT22;3416;53.074;8.822;2023-05-23T06:50:12;14.00;99.90
6758;DHT22;3416;53.074;8.822;2023-05-23T06:52:39;14.00;99.90
6758;DHT22;3416;53.074;8.822;2023-05-23T06:55:10;14.00;99.90
6758;DHT22;3416;53.074;8.822;2023-05-23T06:57:39;14.10;99.90
6758;DHT22;3416;53.074;8.822;2023-05-23T07:00:07;14.00;99.90
6758;DHT22;3416;53.074;8.822;2023-05-23T07:02:34;14.00;99.90
6758;DHT22;3416;53.074;8.822;2023-05-23T07:05:01;14.00;99.90
6758;DHT22;3416;53.074;8.822;2023-05-23T07:07:28;13.90;99.90
6758;DHT22;3416;53.074;8.822;2023-05-23T07:09:55;13.90;99.90
6758;DHT22;3416;53.074;8.822;2023-05-23T07:12:24;13.90;99.90
6758;DHT22;3416;53.074;8.822;2023-05-23T07:14:50;14.00;99.90
6758;DHT22;3416;53.074;8.822;2023-05-23T07:17:17;14.00;99.90
6758;DHT22;3416;53.074;8.822;2023-05-23T07:19:44;14.10;99.90
6758;DHT22;3416;53.074;8.822;2023-05-23T07:22:11;14.00;99.90
6758;DHT22;3416;53.074;8.822;2023-05-23T07:24:38;13.90;99.90
6758;DHT22;3416;53.074;8.822;2023-05-23T07:27:05;13.90;99.90
6758;DHT22;3416;53.074;8.822;2023-05-23T07:29:33;13.90;99.90
6758;DHT22;3416;53.074;8.822;2023-05-23T07:32:01;14.00;99.90
6758;DHT22;3416;53.074;8.822;2023-05-23T07:34:28;14.00;99.90
6758;DHT22;3416;53.074;8.822;2023-05-23T07:36:55;14.00;99.90
6758;DHT22;3416;53.074;8.822;2023-05-23T07:39:22;14.00;99.90
6758;DHT22;3416;53.074;8.822;2023-05-23T07:41:49;14.00;99.90
6758;DHT22;3416;53.074;8.822;2023-05-23T07:44:17;14.10;99.90
6758;DHT22;3416;53.074;8.822;2023-05-23T07:46:45;14.10;99.90
6758;DHT22;3416;53.074;8.822;2023-05-23T07:49:12;13.90;99.90
6758;DHT22;3416;53.074;8.822;2023-05-23T07:51:39;13.80;99.90
6758;DHT22;3416;53.074;8.822;2023-05-23T07:54:07;13.70;99.90
6758;DHT22;3416;53.074;8.822;2023-05-23T07:56:34;13.70;99.90
6758;DHT22;3416;53.074;8.822;2023-05-23T07:59:03;13.60;99.90
6758;DHT22;3416;53.074;8.822;2023-05-23T08:01:30;13.60;99.90
6758;DHT22;3416;53.074;8.822;2023-05-23T08:03:58;13.50;99.90
6758;DHT22;3416;53.074;8.822;2023-05-23T08:06:25;13.40;99.90
6758;DHT22;3416;53.074;8.822;2023-05-23T08:08:52;13.40;99.90
6758;DHT22;3416;53.074;8.822;2023-05-23T08:11:19;13.40;99.90
6758;DHT22;3416;53.074;8.822;2023-05-23T08:13:46;13.60;99.90
6758;DHT22;3416;53.074;8.822;2023-05-23T08:16:13;13.50;99.90
6758;DHT22;3416;53.074;8.822;2023-05-23T08:18:40;13.50;99.90
6758;DHT22;3416;53.074;8.822;2023-05-23T08:21:08;13.50;99.90
6758;DHT22;3416;53.074;8.822;2023-05-23T08:23:35;13.50;99.90
6758;DHT22;3416;53.074;8.822;2023-05-23T08:26:02;13.50;99.90
6758;DHT22;3416;53.074;8.822;2023-05-23T08:28:29;13.40;99.90
6758;DHT22;3416;53.074;8.822;2023-05-23T08:30:59;13.30;99.90
6758;DHT22;3416;53.074;8.822;2023-05-23T08:33:26;13.30;99.90
6758;DHT22;3416;53.074;8.822;2023-05-23T08:35:53;13.20;99.90
6758;DHT22;3416;53.074;8.822;2023-05-23T08:38:21;13.20;99.90
6758;DHT22;3416;53.074;8.822;2023-05-23T08:40:50;13.20;99.90
6758;DHT22;3416;53.074;8.822;2023-05-23T08:43:18;13.30;99.90
6758;DHT22;3416;53.074;8.822;2023-05-23T08:45:45;13.30;99.90
6758;DHT22;3416;53.074;8.822;2023-05-23T08:48:16;13.30;99.90
6758;DHT22;3416;53.074;8.822;2023-05-23T08:50:46;13.30;99.90
6758;DHT22;3416;53.074;8.822;2023-05-23T08:53:15;13.40;99.90
6758;DHT22;3416;53.074;8.822;2023-05-23T08:55:46;13.30;99.90
6758;DHT22;3416;53.074;8.822;2023-05-23T08:58:14;13.40;99.90
6758;DHT22;3416;53.074;8.822;2023-05-23T09:00:41;13.50;99.90
6758;DHT22;3416;53.074;8.822;2023-05-23T09:03:09;13.50;99.90
6758;DHT22;3416;53.074;8.822;2023-05-23T09:05:36;13.50;99.90
6758;DHT22;3416;53.074;8.822;2023-05-23T09:08:03;13.40;99.90
6758;DHT22;3416;53.074;8.822;2023-05-23T09:10:30;13.40;99.90
6758;DHT22;3416;53.074;8.822;2023-05-23T09:12:58;13.40;99.90
6758;DHT22;3416;53.074;8.822;2023-05-23T09:15:25;13.50;99.90
6758;DHT22;3416;53.074;8.822;2023-05-23T09:17:58;13.50;99.90
6758;DHT22;3416;53.074;8.822;2023-05-23T09:20:27;13.40;99.90
6758;DHT22;3416;53.074;8.822;2023-05-23T09:22:54;13.40;99.90
6758;DHT22;3416;53.074;8.822;2023-05-23T09:25:21;13.40;99.90
6758;DHT22;3416;53.074;8.822;2023-05-23T09:27:50;13.30;99.90
6758;DHT22;3416;53.074;8.822;2023-05-23T09:30:19;13.30;99.90
6758;DHT22;3416;53.074;8.822;2023-05-23T09:32:57;13.40;99.90
6758;DHT22;3416;53.074;8.822;2023-05-23T09:35:27;13.50;99.90
6758;DHT22;3416;53.074;8.822;2023-05-23T09:37:56;13.60;99.90
6758;DHT22;3416;53.074;8.822;2023-05-23T09:40:28;13.60;99.90
6758;DHT22;3416;53.074;8.822;2023-05-23T09:43:00;13.60;99.90
6758;DHT22;3416;53.074;8.822;2023-05-23T09:45:30;13.70;99.90
6758;DHT22;3416;53.074;8.822;2023-05-23T09:47:57;13.70;99.90
6758;DHT22;3416;53.074;8.822;2023-05-23T09:50:29;13.80;99.90
6758;DHT22;3416;53.074;8.822;2023-05-23T09:52:58;13.80;99.90
6758;DHT22;3416;53.074;8.822;2023-05-23T09:55:25;13.80;99.90
6758;DHT22;3416;53.074;8.822;2023-05-23T09:57:53;13.80;99.90
6758;DHT22;3416;53.074;8.822;2023-05-23T10:00:22;13.80;99.90
6758;DHT22;3416;53.074;8.822;2023-05-23T10:03:08;13.80;99.90
6758;DHT22;3416;53.074;8.822;2023-05-23T10:05:40;13.90;99.90
6758;DHT22;3416;53.074;8.822;2023-05-23T10:08:13;14.10;99.90
6758;DHT22;3416;53.074;8.822;2023-05-23T10:14:01;14.40;99.90
6758;DHT22;3416;53.074;8.822;2023-05-23T10:16:36;14.60;99.90
6758;DHT22;3416;53.074;8.822;2023-05-23T10:19:15;14.70;99.90
6758;DHT22;3416;53.074;8.822;2023-05-23T10:21:49;15.00;99.90
6758;DHT22;3416;53.074;8.822;2023-05-23T10:24:18;15.20;99.90
6758;DHT22;3416;53.074;8.822;2023-05-23T10:26:46;15.40;99.90
6758;DHT22;3416;53.074;8.822;2023-05-23T10:29:13;15.60;99.90
6758;DHT22;3416;53.074;8.822;2023-05-23T10:31:40;15.80;99.90
6758;DHT22;3416;53.074;8.822;2023-05-23T10:34:31;15.90;99.90
6758;DHT22;3416;53.074;8.822;2023-05-23T10:37:02;16.00;99.90
6758;DHT22;3416;53.074;8.822;2023-05-23T10:42:54;15.80;99.90
6758;DHT22;3416;53.074;8.822;2023-05-23T10:45:39;15.70;99.90
6758;DHT22;3416;53.074;8.822;2023-05-23T10:51:18;15.90;99.90
6758;DHT22;3416;53.074;8.822;2023-05-23T10:54:09;15.90;99.90
6758;DHT22;3416;53.074;8.822;2023-05-23T10:56:36;16.40;99.90
6758;DHT22;3416;53.074;8.822;2023-05-23T10:59:19;16.80;99.90
6758;DHT22;3416;53.074;8.822;2023-05-23T11:01:49;16.60;99.90
6758;DHT22;3416;53.074;8.822;2023-05-23T11:04:24;16.40;99.90
6758;DHT22;3416;53.074;8.822;2023-05-23T11:06:53;16.50;99.90
6758;DHT22;3416;53.074;8.822;2023-05-23T11:09:23;16.70;99.90
6758;DHT22;3416;53.074;8.822;2023-05-23T11:12:03;16.80;99.90
6758;DHT22;3416;53.074;8.822;2023-05-23T11:14:32;16.90;99.90
6758;DHT22;3416;53.074;8.822;2023-05-23T11:17:15;17.40;99.90
6758;DHT22;3416;53.074;8.822;2023-05-23T11:22:35;17.40;99.90
6758;DHT22;3416;53.074;8.822;2023-05-23T11:25:19;17.30;99.90
6758;DHT22;3416;53.074;8.822;2023-05-23T11:27:47;17.10;99.90
6758;DHT22;3416;53.074;8.822;2023-05-23T11:30:19;17.30;99.70
6758;DHT22;3416;53.074;8.822;2023-05-23T11:32:49;17.10;99.90
6758;DHT22;3416;53.074;8.822;2023-05-23T11:35:17;17.20;99.90
6758;DHT22;3416;53.074;8.822;2023-05-23T11:37:45;17.00;99.60
6758;DHT22;3416;53.074;8.822;2023-05-23T11:40:28;16.70;99.90
6758;DHT22;3416;53.074;8.822;2023-05-23T11:42:56;16.40;99.90
6758;DHT22;3416;53.074;8.822;2023-05-23T11:45:24;16.40;99.90
6758;DHT22;3416;53.074;8.822;2023-05-23T11:47:51;16.40;99.90
6758;DHT22;3416;53.074;8.822;2023-05-23T11:50:21;16.40;99.90
6758;DHT22;3416;53.074;8.822;2023-05-23T11:52:53;16.60;99.90
6758;DHT22;3416;53.074;8.822;2023-05-23T11:55:20;16.80;99.90
6758;DHT22;3416;53.074;8.822;2023-05-23T11:57:48;16.70;99.60
6758;DHT22;3416;53.074;8.822;2023-05-23T12:00:16;16.70;98.60
6758;DHT22;3416;53.074;8.822;2023-05-23T12:02:44;16.90;98.50
6758;DHT22;3416;53.074;8.822;2023-05-23T12:05:12;17.20;97.10
6758;DHT22;3416;53.074;8.822;2023-05-23T12:07:40;17.30;96.90
6758;DHT22;3416;53.074;8.822;2023-05-23T12:10:09;17.30;97.60
6758;DHT22;3416;53.074;8.822;2023-05-23T12:12:38;17.10;97.60
6758;DHT22;3416;53.074;8.822;2023-05-23T12:15:08;17.20;98.00
6758;DHT22;3416;53.074;8.822;2023-05-23T12:17:36;17.20;96.20
6758;DHT22;3416;53.074;8.822;2023-05-23T12:20:04;17.50;96.00
6758;DHT22;3416;53.074;8.822;2023-05-23T12:22:31;17.60;95.10
6758;DHT22;3416;53.074;8.822;2023-05-23T12:24:58;17.70;95.00
6758;DHT22;3416;53.074;8.822;2023-05-23T12:27:33;17.60;94.60
6758;DHT22;3416;53.074;8.822;2023-05-23T12:30:10;17.50;94.30
6758;DHT22;3416;53.074;8.822;2023-05-23T12:32:39;17.60;94.60
6758;DHT22;3416;53.074;8.822;2023-05-23T12:35:07;17.60;94.00
6758;DHT22;3416;53.074;8.822;2023-05-23T12:37:35;17.60;94.30
6758;DHT22;3416;53.074;8.822;2023-05-23T12:40:13;17.60;94.60
6758;DHT22;3416;53.074;8.822;2023-05-23T12:45:36;17.40;94.50
6758;DHT22;3416;53.074;8.822;2023-05-23T12:48:03;17.40;95.10
6758;DHT22;3416;53.074;8.822;2023-05-23T12:50:31;17.50;94.70
6758;DHT22;3416;53.074;8.822;2023-05-23T12:52:58;17.50;94.10
6758;DHT22;3416;53.074;8.822;2023-05-23T12:55:27;17.60;94.10
6758;DHT22;3416;53.074;8.822;2023-05-23T12:57:54;17.70;94.00
6758;DHT22;3416;53.074;8.822;2023-05-23T13:00:21;17.80;94.20
6758;DHT22;3416;53.074;8.822;2023-05-23T13:02:49;17.90;93.60
6758;DHT22;3416;53.074;8.822;2023-05-23T13:05:17;18.00;93.20
6758;DHT22;3416;53.074;8.822;2023-05-23T13:07:45;18.00;92.60
6758;DHT22;3416;53.074;8.822;2023-05-23T13:10:12;17.90;92.40
6758;DHT22;3416;53.074;8.822;2023-05-23T13:12:39;17.80;92.70
6758;DHT22;3416;53.074;8.822;2023-05-23T13:15:07;17.90;93.00
6758;DHT22;3416;53.074;8.822;2023-05-23T13:17:34;17.90;93.20
6758;DHT22;3416;53.074;8.822;2023-05-23T13:20:02;18.00;92.60
6758;DHT22;3416;53.074;8.822;2023-05-23T13:22:30;17.90;92.60
6758;DHT22;3416;53.074;8.822;2023-05-23T13:24:57;17.80;93.10
6758;DHT22;3416;53.074;8.822;2023-05-23T13:27:24;17.80;93.20
6758;DHT22;3416;53.074;8.822;2023-05-23T13:29:52;17.80;93.30
6758;DHT22;3416;53.074;8.822;2023-05-23T13:32:19;17.60;93.30
6758;DHT22;3416;53.074;8.822;2023-05-23T13:34:46;17.60;94.00
6758;DHT22;3416;53.074;8.822;2023-05-23T13:37:14;17.50;94.60
6758;DHT22;3416;53.074;8.822;2023-05-23T13:39:41;17.50;94.70
6758;DHT22;3416;53.074;8.822;2023-05-23T13:42:08;17.30;93.80
6758;DHT22;3416;53.074;8.822;2023-05-23T13:44:35;17.00;94.10
6758;DHT22;3416;53.074;8.822;2023-05-23T13:47:09;16.90;94.50
6758;DHT22;3416;53.074;8.822;2023-05-23T13:49:36;16.70;94.80
6758;DHT22;3416;53.074;8.822;2023-05-23T13:52:04;16.90;94.80
6758;DHT22;3416;53.074;8.822;2023-05-23T13:54:33;17.10;94.60
6758;DHT22;3416;53.074;8.822;2023-05-23T13:57:00;17.00;94.50
6758;DHT22;3416;53.074;8.822;2023-05-23T13:59:29;16.80;94.80
6758;DHT22;3416;53.074;8.822;2023-05-23T14:01:55;16.70;94.20
6758;DHT22;3416;53.074;8.822;2023-05-23T14:04:22;16.50;94.60
6758;DHT22;3416;53.074;8.822;2023-05-23T14:06:49;16.70;94.90
6758;DHT22;3416;53.074;8.822;2023-05-23T14:09:17;16.50;95.50
6758;DHT22;3416;53.074;8.822;2023-05-23T14:11:45;16.50;95.50
6758;DHT22;3416;53.074;8.822;2023-05-23T14:14:12;16.60;95.90
6758;DHT22;3416;53.074;8.822;2023-05-23T14:16:39;16.90;94.50
6758;DHT22;3416;53.074;8.822;2023-05-23T14:19:06;17.10;94.20
6758;DHT22;3416;53.074;8.822;2023-05-23T14:21:33;17.10;93.80
6758;DHT22;3416;53.074;8.822;2023-05-23T14:24:01;17.40;93.60
6758;DHT22;3416;53.074;8.822;2023-05-23T14:26:27;17.60;93.10
6758;DHT22;3416;53.074;8.822;2023-05-23T14:28:57;17.50;92.00
6758;DHT22;3416;53.074;8.822;2023-05-23T14:31:24;17.20;92.20
6758;DHT22;3416;53.074;8.822;2023-05-23T14:33:51;17.20;92.20
6758;DHT22;3416;53.074;8.822;2023-05-23T14:36:18;17.30;93.00
6758;DHT22;3416;53.074;8.822;2023-05-23T14:38:45;17.20;92.70
6758;DHT22;3416;53.074;8.822;2023-05-23T14:41:12;17.00;92.90
6758;DHT22;3416;53.074;8.822;2023-05-23T14:43:39;16.80;93.20
6758;DHT22;3416;53.074;8.822;2023-05-23T14:46:08;16.70;93.00
6758;DHT22;3416;53.074;8.822;2023-05-23T14:48:35;16.80;92.90
6758;DHT22;3416;53.074;8.822;2023-05-23T14:51:02;16.80;92.60
6758;DHT22;3416;53.074;8.822;2023-05-23T14:53:29;16.90;92.80
6758;DHT22;3416;53.074;8.822;2023-05-23T14:55:56;17.00;92.20
6758;DHT22;3416;53.074;8.822;2023-05-23T14:58:23;16.90;92.20
6758;DHT22;3416;53.074;8.822;2023-05-23T15:00:50;17.00;92.30
6758;DHT22;3416;53.074;8.822;2023-05-23T15:03:18;16.90;91.60
6758;DHT22;3416;53.074;8.822;2023-05-23T15:05:45;16.80;91.60
6758;DHT22;3416;53.074;8.822;2023-05-23T15:08:12;16.80;91.90
6758;DHT22;3416;53.074;8.822;2023-05-23T15:10:41;16.60;91.30
6758;DHT22;3416;53.074;8.822;2023-05-23T15:13:09;16.50;91.60
6758;DHT22;3416;53.074;8.822;2023-05-23T15:15:36;16.20;92.50
6758;DHT22;3416;53.074;8.822;2023-05-23T15:18:05;16.10;92.90
6758;DHT22;3416;53.074;8.822;2023-05-23T15:20:35;16.30;93.00
6758;DHT22;3416;53.074;8.822;2023-05-23T15:23:03;16.40;92.40
6758;DHT22;3416;53.074;8.822;2023-05-23T15:25:30;16.70;92.70
6758;DHT22;3416;53.074;8.822;2023-05-23T15:27:57;16.80;92.00
6758;DHT22;3416;53.074;8.822;2023-05-23T15:30:24;16.90;91.80
6758;DHT22;3416;53.074;8.822;2023-05-23T15:32:50;17.00;91.80
6758;DHT22;3416;53.074;8.822;2023-05-23T15:35:17;16.80;92.10
6758;DHT22;3416;53.074;8.822;2023-05-23T15:37:46;16.70;92.10
6758;DHT22;3416;53.074;8.822;2023-05-23T15:40:13;16.50;92.20
6758;DHT22;3416;53.074;8.822;2023-05-23T15:42:40;16.40;92.50
6758;DHT22;3416;53.074;8.822;2023-05-23T15:45:08;16.10;92.60
6758;DHT22;3416;53.074;8.822;2023-05-23T15:47:35;15.90;93.10
6758;DHT22;3416;53.074;8.822;2023-05-23T15:50:02;15.80;93.20
6758;DHT22;3416;53.074;8.822;2023-05-23T15:52:29;15.70;93.00
6758;DHT22;3416;53.074;8.822;2023-05-23T15:54:57;15.60;93.20
6758;DHT22;3416;53.074;8.822;2023-05-23T15:57:26;15.60;93.50
6758;DHT22;3416;53.074;8.822;2023-05-23T15:59:53;15.70;94.10
6758;DHT22;3416;53.074;8.822;2023-05-23T16:02:21;15.70;94.10
6758;DHT22;3416;53.074;8.822;2023-05-23T16:04:48;15.80;94.50
6758;DHT22;3416;53.074;8.822;2023-05-23T16:07:34;15.80;94.00
6758;DHT22;3416;53.074;8.822;2023-05-23T16:10:03;15.80;93.40
6758;DHT22;3416;53.074;8.822;2023-05-23T16:13:06;15.80;93.30
6758;DHT22;3416;53.074;8.822;2023-05-23T16:15:33;15.60;93.10
6758;DHT22;3416;53.074;8.822;2023-05-23T16:18:04;15.40;93.60
6758;DHT22;3416;53.074;8.822;2023-05-23T16:20:31;15.30;94.10
6758;DHT22;3416;53.074;8.822;2023-05-23T16:22:59;15.20;94.00
6758;DHT22;3416;53.074;8.822;2023-05-23T16:25:27;15.10;94.20